Time;durP1;ratioP1;P1;durP2;ratioP2;P2;SDS_P1;SDS_P2;PMS_P1;PMS_P2;Temp;Humidity;BMP_temperature;BMP_pressure;BME280_temperature;BME280_humidity;BME280_pressure;Samples;Min_cycle;Max_cycle;Signal;HPM_P1;HPM_P2
2022/06/13 00:02:07;;;;;;;;;;;19.90;99.90;;;;;;5082851;28;19936;-93
2022/06/13 00:04:34;;;;;;;;;;;19.90;99.90;;;;;;5078808;28;19915;-93
2022/06/13 00:07:01;;;;;;;;;;;19.90;99.90;;;;;;5082061;28;19926;-93
2022/06/13 00:09:27;;;;;;;;;;;19.90;99.90;;;;;;5077898;28;19954;-93
2022/06/13 00:11:52;;;;;;;;;;;19.90;99.90;;;;;;5085825;28;19915;-92
2022/06/13 00:14:18;;;;;;;;;;;19.80;99.90;;;;;;5085667;28;20220;-91
2022/06/13 00:16:43;;;;;;;;;;;19.80;99.90;;;;;;5084264;28;19947;-92
2022/06/13 00:19:09;;;;;;;;;;;19.80;99.90;;;;;;5078016;28;19908;-91
2022/06/13 00:21:35;;;;;;;;;;;19.80;99.90;;;;;;5085377;28;19904;-91
2022/06/13 00:24:04;;;;;;;;;;;19.70;99.90;;;;;;5074633;28;19909;-93
2022/06/13 00:26:31;;;;;;;;;;;19.70;99.90;;;;;;5082637;28;19911;-93
2022/06/13 00:28:57;;;;;;;;;;;19.60;99.90;;;;;;5090115;28;20029;-92
2022/06/13 00:31:23;;;;;;;;;;;19.60;99.90;;;;;;5083019;28;19958;-93
2022/06/13 00:33:49;;;;;;;;;;;19.60;99.90;;;;;;5074959;28;19904;-92
2022/06/13 00:36:14;;;;;;;;;;;19.50;99.90;;;;;;5074737;28;19974;-92
2022/06/13 00:38:40;;;;;;;;;;;19.50;99.90;;;;;;5083026;28;19966;-93
2022/06/13 00:41:07;;;;;;;;;;;19.50;99.90;;;;;;5083913;28;20030;-93
2022/06/13 00:43:34;;;;;;;;;;;19.50;99.90;;;;;;5090387;28;19904;-92
2022/06/13 00:45:59;;;;;;;;;;;19.50;99.90;;;;;;5081780;28;19911;-92
2022/06/13 00:48:27;;;;;;;;;;;19.50;99.90;;;;;;5082793;28;20019;-93
2022/06/13 00:50:55;;;;;;;;;;;19.50;99.90;;;;;;5080885;28;19904;-92
2022/06/13 00:53:22;;;;;;;;;;;19.50;99.90;;;;;;5078188;28;19994;-90
2022/06/13 00:55:50;;;;;;;;;;;19.50;99.90;;;;;;5081566;28;19912;-92
2022/06/13 00:58:17;;;;;;;;;;;19.60;99.90;;;;;;5079053;28;19912;-89
2022/06/13 01:00:46;;;;;;;;;;;19.60;99.90;;;;;;5081221;28;19912;-92
2022/06/13 01:03:12;;;;;;;;;;;19.60;99.90;;;;;;5079414;28;19905;-93
2022/06/13 01:05:40;;;;;;;;;;;19.50;99.90;;;;;;5074920;28;19904;-94
2022/06/13 01:08:06;;;;;;;;;;;19.50;99.90;;;;;;5080486;28;20657;-92
2022/06/13 01:13:17;;;;;;;;;;;19.50;99.90;;;;;;5079402;28;19939;-93
2022/06/13 01:15:43;;;;;;;;;;;19.50;99.90;;;;;;5084479;28;19904;-92
2022/06/13 01:18:17;;;;;;;;;;;19.50;99.90;;;;;;5079138;28;20274;-93
2022/06/13 01:20:53;;;;;;;;;;;19.40;99.90;;;;;;5075154;28;19908;-93
2022/06/13 01:23:18;;;;;;;;;;;19.40;99.90;;;;;;5078357;28;19915;-93
2022/06/13 01:25:52;;;;;;;;;;;19.40;99.90;;;;;;5075656;28;19904;-92
2022/06/13 01:28:37;;;;;;;;;;;19.40;99.90;;;;;;5080389;28;19904;-93
2022/06/13 01:31:14;;;;;;;;;;;19.40;99.90;;;;;;5076657;28;20278;-92
2022/06/13 01:33:59;;;;;;;;;;;19.30;99.90;;;;;;5081780;28;19954;-93
2022/06/13 01:36:28;;;;;;;;;;;19.30;99.90;;;;;;5085917;28;19908;-93
2022/06/13 01:39:09;;;;;;;;;;;19.30;99.90;;;;;;5084221;28;19958;-91
2022/06/13 01:41:34;;;;;;;;;;;19.40;99.90;;;;;;5069249;28;19937;-92
2022/06/13 01:44:08;;;;;;;;;;;19.50;99.90;;;;;;5064393;28;19951;-90
2022/06/13 01:46:46;;;;;;;;;;;19.50;99.90;;;;;;5088331;28;19947;-91
2022/06/13 01:49:11;;;;;;;;;;;19.50;99.90;;;;;;5077068;28;19901;-93
2022/06/13 01:51:42;;;;;;;;;;;19.50;99.90;;;;;;5092828;28;20346;-93
2022/06/13 01:54:22;;;;;;;;;;;19.50;99.90;;;;;;5090830;28;20006;-92
2022/06/13 01:57:03;;;;;;;;;;;19.50;99.90;;;;;;5093527;28;19908;-93
2022/06/13 01:59:40;;;;;;;;;;;19.50;99.90;;;;;;5093456;28;20089;-92
2022/06/13 02:02:18;;;;;;;;;;;19.50;99.90;;;;;;5092846;28;20267;-94
2022/06/13 02:04:47;;;;;;;;;;;19.50;99.90;;;;;;5079671;28;19904;-92
2022/06/13 02:07:22;;;;;;;;;;;19.50;99.90;;;;;;5085295;28;19908;-92
2022/06/13 02:09:51;;;;;;;;;;;19.40;99.90;;;;;;5082290;28;19915;-93
2022/06/13 02:12:19;;;;;;;;;;;19.40;99.90;;;;;;5095009;28;20362;-94
2022/06/13 02:14:54;;;;;;;;;;;19.40;99.90;;;;;;5081180;28;19912;-93
2022/06/13 02:17:26;;;;;;;;;;;19.40;99.90;;;;;;5055902;28;19920;-93
2022/06/13 02:19:51;;;;;;;;;;;19.30;99.90;;;;;;5087072;28;20484;-93
2022/06/13 02:22:20;;;;;;;;;;;19.30;99.90;;;;;;5090998;28;19903;-93
2022/06/13 02:24:58;;;;;;;;;;;19.30;99.90;;;;;;5090585;28;19916;-93
2022/06/13 02:27:26;;;;;;;;;;;19.40;99.90;;;;;;5053690;28;19905;-93
2022/06/13 02:29:54;;;;;;;;;;;19.40;99.90;;;;;;5081479;28;19999;-93
2022/06/13 02:32:21;;;;;;;;;;;19.30;99.90;;;;;;5088633;28;19904;-92
2022/06/13 02:34:52;;;;;;;;;;;19.30;99.90;;;;;;5086858;28;20027;-92
2022/06/13 02:37:21;;;;;;;;;;;19.20;99.90;;;;;;5088997;28;19912;-91
2022/06/13 02:39:56;;;;;;;;;;;19.20;99.90;;;;;;5084086;28;19912;-92
2022/06/13 02:42:25;;;;;;;;;;;19.10;99.90;;;;;;5101934;28;19907;-91
2022/06/13 02:44:58;;;;;;;;;;;19.10;99.90;;;;;;5089911;28;19912;-92
2022/06/13 02:47:26;;;;;;;;;;;19.10;99.90;;;;;;5086745;28;19911;-92
2022/06/13 02:50:18;;;;;;;;;;;19.00;99.90;;;;;;5089219;28;19904;-94
2022/06/13 02:52:57;;;;;;;;;;;19.00;99.90;;;;;;5078956;28;19904;-92
2022/06/13 02:55:23;;;;;;;;;;;19.00;99.90;;;;;;5090917;28;19910;-92
2022/06/13 02:58:01;;;;;;;;;;;19.00;99.90;;;;;;5084065;28;20366;-92
2022/06/13 03:00:45;;;;;;;;;;;19.10;99.90;;;;;;5076847;28;19998;-92
2022/06/13 03:03:16;;;;;;;;;;;19.10;99.90;;;;;;5059821;28;19967;-92
2022/06/13 03:06:00;;;;;;;;;;;19.10;99.90;;;;;;5092258;28;19977;-93
2022/06/13 03:08:35;;;;;;;;;;;19.10;99.90;;;;;;5090469;28;20377;-92
2022/06/13 03:11:19;;;;;;;;;;;19.10;99.90;;;;;;5084744;28;20457;-92
2022/06/13 03:13:57;;;;;;;;;;;19.10;99.90;;;;;;5093473;28;19916;-92
2022/06/13 03:16:47;;;;;;;;;;;19.20;99.90;;;;;;5079641;28;20360;-91
2022/06/13 03:19:21;;;;;;;;;;;19.10;99.90;;;;;;5093186;28;19908;-92
2022/06/13 03:21:49;;;;;;;;;;;19.20;99.90;;;;;;5084099;28;19904;-92
2022/06/13 03:24:14;;;;;;;;;;;19.10;99.90;;;;;;5083605;28;19926;-92
2022/06/13 03:26:43;;;;;;;;;;;19.10;99.90;;;;;;5088122;28;20531;-90
2022/06/13 03:29:16;;;;;;;;;;;19.10;99.90;;;;;;5088985;28;20278;-92
2022/06/13 03:31:44;;;;;;;;;;;19.10;99.90;;;;;;5082233;28;19991;-92
2022/06/13 03:34:29;;;;;;;;;;;19.10;99.90;;;;;;5089148;28;19927;-92
2022/06/13 03:37:06;;;;;;;;;;;19.10;99.90;;;;;;5083419;28;19911;-91
2022/06/13 03:39:38;;;;;;;;;;;19.10;99.90;;;;;;5085769;28;19904;-92
2022/06/13 03:42:08;;;;;;;;;;;19.10;99.90;;;;;;5088930;28;19904;-91
2022/06/13 03:44:37;;;;;;;;;;;19.10;99.90;;;;;;5089082;28;19958;-92
2022/06/13 03:47:09;;;;;;;;;;;19.10;99.90;;;;;;5087114;28;19908;-91
2022/06/13 03:49:44;;;;;;;;;;;19.10;99.90;;;;;;5090390;28;19904;-93
2022/06/13 03:52:11;;;;;;;;;;;19.10;99.90;;;;;;5087264;28;19958;-93
2022/06/13 03:54:36;;;;;;;;;;;19.20;99.90;;;;;;5090970;28;19910;-93
2022/06/13 03:57:12;;;;;;;;;;;19.20;99.90;;;;;;5079622;28;19916;-94
2022/06/13 03:59:41;;;;;;;;;;;19.20;99.90;;;;;;5076586;28;19908;-94
2022/06/13 04:02:08;;;;;;;;;;;19.20;99.90;;;;;;5088146;28;19908;-93
2022/06/13 04:04:37;;;;;;;;;;;19.20;99.90;;;;;;5090309;28;19904;-94
2022/06/13 04:07:03;;;;;;;;;;;19.30;99.90;;;;;;5077759;28;19909;-94
2022/06/13 04:09:30;;;;;;;;;;;19.40;99.90;;;;;;5085595;28;19929;-94
2022/06/13 04:12:02;;;;;;;;;;;19.40;99.90;;;;;;5083202;28;20461;-92
2022/06/13 04:14:28;;;;;;;;;;;19.40;99.90;;;;;;5085373;28;19916;-94
2022/06/13 04:17:12;;;;;;;;;;;19.50;99.90;;;;;;5089552;28;19930;-93
2022/06/13 04:19:47;;;;;;;;;;;19.50;99.90;;;;;;5086321;28;19911;-93
2022/06/13 04:22:32;;;;;;;;;;;19.60;99.90;;;;;;5087267;28;19969;-93
2022/06/13 04:24:57;;;;;;;;;;;19.70;99.90;;;;;;5083460;28;19907;-92
2022/06/13 04:27:42;;;;;;;;;;;19.80;99.90;;;;;;5072872;28;19904;-91
2022/06/13 04:30:14;;;;;;;;;;;19.80;99.90;;;;;;5083130;28;19915;-93
2022/06/13 04:32:52;;;;;;;;;;;19.90;99.90;;;;;;5084335;28;19904;-92
2022/06/13 04:35:18;;;;;;;;;;;20.00;99.90;;;;;;5083137;28;19989;-92
2022/06/13 04:37:45;;;;;;;;;;;20.10;99.90;;;;;;5083431;28;19917;-91
2022/06/13 04:40:17;;;;;;;;;;;20.10;99.90;;;;;;5082564;28;19940;-91
2022/06/13 04:42:43;;;;;;;;;;;20.20;99.90;;;;;;5092837;28;19954;-92
2022/06/13 04:45:18;;;;;;;;;;;20.20;99.90;;;;;;5083124;28;19904;-94
2022/06/13 04:47:45;;;;;;;;;;;20.30;99.90;;;;;;5083975;28;19904;-95
2022/06/13 04:50:19;;;;;;;;;;;20.40;99.90;;;;;;5083020;28;19919;-94
2022/06/13 04:52:46;;;;;;;;;;;20.40;99.90;;;;;;5082966;28;19904;-94
2022/06/13 04:55:12;;;;;;;;;;;20.40;99.90;;;;;;5082227;28;19957;-95
2022/06/13 04:57:38;;;;;;;;;;;20.60;99.90;;;;;;5093309;28;20023;-94
2022/06/13 05:00:05;;;;;;;;;;;20.60;99.90;;;;;;5083222;28;20370;-92
2022/06/13 05:02:36;;;;;;;;;;;20.70;99.90;;;;;;5083806;28;19927;-93
2022/06/13 05:05:03;;;;;;;;;;;20.70;99.90;;;;;;5080727;28;19904;-93
2022/06/13 05:07:33;;;;;;;;;;;20.90;99.90;;;;;;5081237;28;20283;-92
2022/06/13 05:10:00;;;;;;;;;;;21.00;99.90;;;;;;5078063;28;19911;-93
2022/06/13 05:12:30;;;;;;;;;;;21.10;99.90;;;;;;5085169;28;19923;-91
2022/06/13 05:14:56;;;;;;;;;;;21.10;99.90;;;;;;5079771;28;20412;-92
2022/06/13 05:17:40;;;;;;;;;;;21.20;99.90;;;;;;5084104;28;20039;-92
2022/06/13 05:20:21;;;;;;;;;;;21.20;99.90;;;;;;5080793;28;19954;-92
2022/06/13 05:23:00;;;;;;;;;;;21.30;99.90;;;;;;5082756;28;19908;-93
2022/06/13 05:25:28;;;;;;;;;;;21.40;99.90;;;;;;5081820;28;19958;-94
2022/06/13 05:27:54;;;;;;;;;;;21.60;99.90;;;;;;5085162;28;19908;-92
2022/06/13 05:30:21;;;;;;;;;;;21.60;99.90;;;;;;5081762;28;19934;-92
2022/06/13 05:32:47;;;;;;;;;;;21.60;99.90;;;;;;5075697;28;19909;-93
2022/06/13 05:35:15;;;;;;;;;;;21.70;99.90;;;;;;5084001;28;19916;-93
2022/06/13 05:37:41;;;;;;;;;;;21.70;99.90;;;;;;5087900;28;20363;-92
2022/06/13 05:40:09;;;;;;;;;;;21.80;99.90;;;;;;5084093;28;20002;-94
2022/06/13 05:42:34;;;;;;;;;;;21.90;99.90;;;;;;5090092;28;20255;-93
2022/06/13 05:45:00;;;;;;;;;;;22.00;99.90;;;;;;5084087;28;19904;-92
2022/06/13 05:47:25;;;;;;;;;;;22.20;99.90;;;;;;5098630;28;19904;-96
2022/06/13 05:49:51;;;;;;;;;;;22.30;99.90;;;;;;5089637;28;19905;-96
2022/06/13 05:52:16;;;;;;;;;;;22.40;99.90;;;;;;5082552;28;19998;-96
2022/06/13 05:54:42;;;;;;;;;;;22.50;99.90;;;;;;5086185;28;19963;-94
2022/06/13 05:57:09;;;;;;;;;;;22.60;99.90;;;;;;5090172;28;19954;-94
2022/06/13 05:59:34;;;;;;;;;;;22.80;99.90;;;;;;5081933;28;20375;-95
2022/06/13 06:02:00;;;;;;;;;;;22.90;99.90;;;;;;5091017;28;19991;-94
2022/06/13 06:04:26;;;;;;;;;;;23.00;99.90;;;;;;5088941;28;19911;-96
2022/06/13 06:06:51;;;;;;;;;;;23.10;99.90;;;;;;5091264;28;20253;-96
2022/06/13 06:09:17;;;;;;;;;;;23.20;99.90;;;;;;5084872;28;20011;-96
2022/06/13 06:11:43;;;;;;;;;;;23.30;99.90;;;;;;5090054;28;19958;-95
2022/06/13 06:14:09;;;;;;;;;;;23.40;99.90;;;;;;5091768;28;19916;-94
2022/06/13 06:16:34;;;;;;;;;;;23.40;99.90;;;;;;5078518;28;19908;-92
2022/06/13 06:19:00;;;;;;;;;;;23.50;99.90;;;;;;5094446;28;19915;-93
2022/06/13 06:21:25;;;;;;;;;;;23.60;99.90;;;;;;5078233;28;20480;-94
2022/06/13 06:23:51;;;;;;;;;;;23.70;99.90;;;;;;5082201;28;19911;-94
2022/06/13 06:26:22;;;;;;;;;;;23.80;99.90;;;;;;5075175;28;19904;-93
2022/06/13 06:28:48;;;;;;;;;;;24.00;99.90;;;;;;5075600;28;19993;-86
2022/06/13 06:31:13;;;;;;;;;;;24.00;99.90;;;;;;5087436;28;20005;-92
2022/06/13 06:33:39;;;;;;;;;;;24.30;99.90;;;;;;5096450;28;19911;-91
2022/06/13 06:36:04;;;;;;;;;;;24.50;99.90;;;;;;5080912;28;19904;-93
2022/06/13 06:38:30;;;;;;;;;;;24.60;99.90;;;;;;5076724;28;19918;-95
2022/06/13 06:40:56;;;;;;;;;;;24.70;99.90;;;;;;5081523;28;19939;-91
2022/06/13 06:43:21;;;;;;;;;;;24.80;99.90;;;;;;5077053;28;19908;-90
2022/06/13 06:45:47;;;;;;;;;;;24.90;99.90;;;;;;5080036;28;19905;-91
2022/06/13 06:48:14;;;;;;;;;;;24.80;99.90;;;;;;5086362;28;19944;-90
2022/06/13 06:50:41;;;;;;;;;;;24.70;99.90;;;;;;5076565;28;20273;-90
2022/06/13 06:53:06;;;;;;;;;;;24.40;99.90;;;;;;5092681;28;19913;-90
2022/06/13 07:01:03;;;;;;;;;;;24.10;99.90;;;;;;5074603;28;19911;-90
2022/06/13 07:03:28;;;;;;;;;;;24.00;99.90;;;;;;5078942;28;19951;-89
2022/06/13 07:05:54;;;;;;;;;;;24.20;99.90;;;;;;5084214;28;19952;-90
2022/06/13 07:08:19;;;;;;;;;;;24.30;99.90;;;;;;5084636;28;19911;-89
2022/06/13 07:10:47;;;;;;;;;;;24.30;99.90;;;;;;5079880;28;19911;-90
2022/06/13 07:13:14;;;;;;;;;;;24.50;99.90;;;;;;5084670;28;19978;-89
2022/06/13 07:15:40;;;;;;;;;;;24.60;99.90;;;;;;5081341;28;20488;-90
2022/06/13 07:18:06;;;;;;;;;;;24.70;99.90;;;;;;5081910;28;19955;-89
2022/06/13 07:20:31;;;;;;;;;;;24.80;99.90;;;;;;5079218;28;19995;-88
2022/06/13 07:22:57;;;;;;;;;;;24.80;99.90;;;;;;5081017;28;19970;-89
2022/06/13 07:25:25;;;;;;;;;;;24.90;99.90;;;;;;5079332;28;19908;-91
2022/06/13 07:27:50;;;;;;;;;;;25.00;99.90;;;;;;5082287;28;20347;-89
2022/06/13 07:30:17;;;;;;;;;;;25.30;99.90;;;;;;5086922;28;19927;-90
2022/06/13 07:32:43;;;;;;;;;;;25.50;99.90;;;;;;5075136;28;19995;-90
2022/06/13 07:35:10;;;;;;;;;;;25.80;99.90;;;;;;5080092;28;19910;-91
2022/06/13 07:40:20;;;;;;;;;;;26.10;99.90;;;;;;5082707;28;19927;-90
2022/06/13 07:42:48;;;;;;;;;;;26.20;99.90;;;;;;5090841;28;20347;-90
2022/06/13 07:45:16;;;;;;;;;;;26.20;99.90;;;;;;5077865;28;19915;-92
2022/06/13 07:47:42;;;;;;;;;;;26.00;99.90;;;;;;5082083;28;19904;-90
2022/06/13 07:50:10;;;;;;;;;;;25.80;99.90;;;;;;5088072;28;19905;-90
2022/06/13 07:52:35;;;;;;;;;;;25.70;99.90;;;;;;5084365;28;19911;-90
2022/06/13 07:55:01;;;;;;;;;;;25.60;99.90;;;;;;5083658;28;19904;-89
2022/06/13 07:57:26;;;;;;;;;;;25.70;99.90;;;;;;5084155;28;19913;-89
2022/06/13 07:59:52;;;;;;;;;;;25.80;99.90;;;;;;5079814;28;19912;-90
2022/06/13 08:02:18;;;;;;;;;;;25.90;99.90;;;;;;5080789;28;19909;-89
2022/06/13 08:04:44;;;;;;;;;;;26.00;99.90;;;;;;5082222;28;19904;-92
2022/06/13 08:07:10;;;;;;;;;;;26.00;99.90;;;;;;5082456;28;19974;-90
2022/06/13 08:09:36;;;;;;;;;;;25.80;99.90;;;;;;5077120;28;19958;-88
2022/06/13 08:12:02;;;;;;;;;;;25.60;99.90;;;;;;5088413;28;19927;-89
2022/06/13 08:14:27;;;;;;;;;;;25.50;99.90;;;;;;5083801;28;20355;-90
2022/06/13 08:16:55;;;;;;;;;;;25.40;99.90;;;;;;5081167;28;20021;-89
2022/06/13 08:19:21;;;;;;;;;;;25.20;99.90;;;;;;5089310;28;19934;-89
2022/06/13 08:21:46;;;;;;;;;;;25.00;99.90;;;;;;5082736;28;19912;-90
2022/06/13 08:24:12;;;;;;;;;;;24.70;99.90;;;;;;5078025;28;19987;-89
2022/06/13 08:26:37;;;;;;;;;;;24.60;99.90;;;;;;5081406;28;20358;-89
2022/06/13 08:29:04;;;;;;;;;;;24.50;99.90;;;;;;5077421;28;19908;-89
2022/06/13 08:31:30;;;;;;;;;;;24.60;99.90;;;;;;5081904;28;19904;-89
2022/06/13 08:33:56;;;;;;;;;;;24.50;99.90;;;;;;5077874;28;19904;-89
2022/06/13 08:36:22;;;;;;;;;;;24.40;99.90;;;;;;5080034;28;19904;-90
2022/06/13 08:38:48;;;;;;;;;;;24.20;99.90;;;;;;5083617;28;19904;-89
2022/06/13 08:41:17;;;;;;;;;;;24.10;99.90;;;;;;5084882;28;19911;-90
2022/06/13 08:43:46;;;;;;;;;;;24.10;99.90;;;;;;5085660;28;19943;-91
2022/06/13 08:46:15;;;;;;;;;;;24.10;99.90;;;;;;5082675;28;19993;-89
2022/06/13 08:48:44;;;;;;;;;;;24.20;99.90;;;;;;5085160;28;19911;-89
2022/06/13 08:51:15;;;;;;;;;;;24.30;99.90;;;;;;5083015;28;19958;-89
2022/06/13 08:53:40;;;;;;;;;;;24.40;99.90;;;;;;5086482;28;20387;-89
2022/06/13 08:56:08;;;;;;;;;;;24.40;99.90;;;;;;5084773;28;19947;-90
2022/06/13 08:58:36;;;;;;;;;;;24.40;99.90;;;;;;5089187;28;19916;-89
2022/06/13 09:01:16;;;;;;;;;;;24.40;99.90;;;;;;5080256;28;19959;-90
2022/06/13 09:03:50;;;;;;;;;;;24.50;99.90;;;;;;5078924;28;20338;-88
2022/06/13 09:06:36;;;;;;;;;;;24.50;99.90;;;;;;5074270;28;19905;-88
2022/06/13 09:09:09;;;;;;;;;;;24.60;99.90;;;;;;5065852;28;19974;-89
2022/06/13 09:11:42;;;;;;;;;;;24.80;99.90;;;;;;5075618;28;19905;-88
2022/06/13 09:14:11;;;;;;;;;;;24.80;99.90;;;;;;5077255;28;20011;-89
2022/06/13 09:16:38;;;;;;;;;;;24.90;99.90;;;;;;5082073;28;19962;-88
2022/06/13 09:19:22;;;;;;;;;;;24.90;99.90;;;;;;5077040;28;19912;-88
2022/06/13 09:21:48;;;;;;;;;;;24.90;99.90;;;;;;5079301;28;20275;-89
2022/06/13 09:24:24;;;;;;;;;;;25.00;99.90;;;;;;5087027;28;19904;-89
2022/06/13 09:26:52;;;;;;;;;;;25.00;99.90;;;;;;5080297;28;19997;-89
2022/06/13 09:29:17;;;;;;;;;;;25.10;99.90;;;;;;5078828;28;19904;-89
2022/06/13 09:31:44;;;;;;;;;;;25.00;99.90;;;;;;5083966;28;19914;-89
2022/06/13 09:34:12;;;;;;;;;;;25.10;99.90;;;;;;5075706;28;19923;-88
2022/06/13 09:37:01;;;;;;;;;;;25.10;99.90;;;;;;5083058;28;19916;-89
2022/06/13 09:39:26;;;;;;;;;;;25.40;99.90;;;;;;5085990;28;19958;-89
2022/06/13 09:41:58;;;;;;;;;;;25.80;99.90;;;;;;5087682;28;19904;-88
2022/06/13 09:44:37;;;;;;;;;;;26.10;99.90;;;;;;5107128;28;19888;-90
2022/06/13 09:47:03;;;;;;;;;;;26.60;99.90;;;;;;5089532;28;19966;-89
2022/06/13 09:49:45;;;;;;;;;;;27.40;99.90;;;;;;5081166;28;19912;-90
2022/06/13 09:52:21;;;;;;;;;;;28.00;99.90;;;;;;5088894;28;20022;-87
2022/06/13 09:55:06;;;;;;;;;;;28.60;99.90;;;;;;5096750;28;19908;-90
2022/06/13 09:57:31;;;;;;;;;;;29.10;99.50;;;;;;5084486;28;19916;-91
2022/06/13 10:00:08;;;;;;;;;;;29.30;98.00;;;;;;5082068;28;19904;-91
2022/06/13 10:02:37;;;;;;;;;;;29.50;99.90;;;;;;5105795;28;19957;-90
2022/06/13 10:05:07;;;;;;;;;;;29.00;99.90;;;;;;5082843;28;19904;-89
2022/06/13 10:07:48;;;;;;;;;;;28.30;99.90;;;;;;5079188;28;19957;-89
2022/06/13 10:10:14;;;;;;;;;;;27.80;99.90;;;;;;5080780;28;19919;-89
2022/06/13 10:12:42;;;;;;;;;;;27.20;99.90;;;;;;5092743;28;20282;-89
2022/06/13 10:15:16;;;;;;;;;;;27.00;99.90;;;;;;5083490;28;19912;-89
2022/06/13 10:17:49;;;;;;;;;;;26.80;99.90;;;;;;5081981;28;19955;-89
2022/06/13 10:20:20;;;;;;;;;;;26.60;99.90;;;;;;5080855;28;19951;-90
2022/06/13 10:22:54;;;;;;;;;;;26.60;99.90;;;;;;5083524;28;19936;-89
2022/06/13 10:25:32;;;;;;;;;;;26.80;99.90;;;;;;5080645;28;19911;-88
2022/06/13 10:28:04;;;;;;;;;;;26.90;99.90;;;;;;5076840;28;19995;-90
2022/06/13 10:30:35;;;;;;;;;;;27.10;99.90;;;;;;5064917;28;19910;-90
2022/06/13 10:33:21;;;;;;;;;;;27.10;99.90;;;;;;5083013;28;19904;-90
2022/06/13 10:35:48;;;;;;;;;;;27.20;99.90;;;;;;5084195;28;19957;-90
2022/06/13 10:38:17;;;;;;;;;;;27.40;99.90;;;;;;5085340;28;19916;-89
2022/06/13 10:40:42;;;;;;;;;;;27.60;99.90;;;;;;5089727;28;20432;-90
2022/06/13 10:43:08;;;;;;;;;;;27.80;99.90;;;;;;5069183;28;19908;-91
2022/06/13 10:45:38;;;;;;;;;;;27.90;99.40;;;;;;5087466;28;19911;-90
2022/06/13 10:48:08;;;;;;;;;;;28.20;99.90;;;;;;5085207;28;19910;-90
2022/06/13 10:50:40;;;;;;;;;;;28.10;99.90;;;;;;5084189;28;19904;-90
2022/06/13 10:53:08;;;;;;;;;;;28.00;99.70;;;;;;5085244;28;21458;-90
2022/06/13 10:55:37;;;;;;;;;;;28.00;98.10;;;;;;5084653;28;19908;-89
2022/06/13 10:58:05;;;;;;;;;;;28.10;98.40;;;;;;5085220;28;19912;-90
2022/06/13 11:00:31;;;;;;;;;;;27.80;96.40;;;;;;5084058;28;20454;-90
2022/06/13 11:03:23;;;;;;;;;;;27.80;97.90;;;;;;5084351;28;19904;-90
2022/06/13 11:05:57;;;;;;;;;;;28.00;98.40;;;;;;5078281;28;19971;-89
2022/06/13 11:08:23;;;;;;;;;;;28.20;97.20;;;;;;5080393;28;19915;-90
2022/06/13 11:10:56;;;;;;;;;;;28.40;95.50;;;;;;5088810;28;19904;-89
2022/06/13 11:13:27;;;;;;;;;;;28.30;93.60;;;;;;5089463;28;20414;-92
2022/06/13 11:24:42;;;;;;;;;;;28.00;98.10;;;;;;5075193;28;19911;-88
2022/06/13 11:30:16;;;;;;;;;;;27.80;95.60;;;;;;5079078;28;19911;-93
2022/06/13 11:32:54;;;;;;;;;;;27.70;94.30;;;;;;5087008;28;19911;-88
2022/06/13 11:35:38;;;;;;;;;;;27.90;98.30;;;;;;5083723;28;19903;-90
2022/06/13 11:38:22;;;;;;;;;;;28.20;96.10;;;;;;5067644;28;19913;-93
2022/06/13 11:40:56;;;;;;;;;;;28.20;94.70;;;;;;5077838;28;19904;-92
2022/06/13 11:43:30;;;;;;;;;;;28.00;94.20;;;;;;5060432;28;20408;-90
2022/06/13 11:46:00;;;;;;;;;;;28.00;92.20;;;;;;5082861;28;19915;-90
2022/06/13 11:48:26;;;;;;;;;;;28.10;93.60;;;;;;5088359;28;20033;-90
2022/06/13 11:50:53;;;;;;;;;;;28.30;92.70;;;;;;5085546;28;19965;-84
2022/06/13 11:53:37;;;;;;;;;;;28.50;95.40;;;;;;5084485;28;19904;-90
2022/06/13 11:56:11;;;;;;;;;;;28.80;93.90;;;;;;5081719;28;20049;-89
2022/06/13 11:58:45;;;;;;;;;;;29.00;93.80;;;;;;5084545;28;19912;-90
2022/06/13 12:01:13;;;;;;;;;;;29.20;93.00;;;;;;5093765;28;19911;-93
2022/06/13 12:03:41;;;;;;;;;;;30.50;93.30;;;;;;5079982;28;19938;-88
2022/06/13 12:06:07;;;;;;;;;;;33.80;87.40;;;;;;5079358;28;19912;-94
2022/06/13 12:08:32;;;;;;;;;;;35.20;85.20;;;;;;5078387;28;19995;-92
2022/06/13 12:11:00;;;;;;;;;;;36.40;87.40;;;;;;5079432;28;19910;-93
2022/06/13 12:13:28;;;;;;;;;;;37.60;82.20;;;;;;5085716;28;19917;-92
2022/06/13 12:16:00;;;;;;;;;;;38.50;78.50;;;;;;5078042;28;19958;-93
2022/06/13 12:19:01;;;;;;;;;;;38.20;76.20;;;;;;5078834;28;19913;-92
2022/06/13 12:21:26;;;;;;;;;;;39.10;76.70;;;;;;5034678;28;19905;-92
2022/06/13 12:24:19;;;;;;;;;;;40.10;72.20;;;;;;5075329;28;19924;-92
2022/06/13 12:27:11;;;;;;;;;;;39.90;69.90;;;;;;5076911;28;19951;-93
2022/06/13 12:29:55;;;;;;;;;;;39.30;71.60;;;;;;5069133;28;20278;-82
2022/06/13 12:32:25;;;;;;;;;;;39.50;69.50;;;;;;5082794;28;19965;-94
2022/06/13 12:35:00;;;;;;;;;;;40.00;66.70;;;;;;5090997;28;19904;-91
2022/06/13 12:37:26;;;;;;;;;;;40.60;62.40;;;;;;5076519;28;19919;-91
2022/06/13 12:40:12;;;;;;;;;;;40.50;67.00;;;;;;5075256;28;19951;-95
2022/06/13 12:42:46;;;;;;;;;;;40.10;68.90;;;;;;5051485;28;19927;-93
2022/06/13 12:45:28;;;;;;;;;;;39.50;68.00;;;;;;5084746;28;19906;-91
2022/06/13 12:47:59;;;;;;;;;;;40.90;68.10;;;;;;5082415;28;19913;-92
2022/06/13 12:50:40;;;;;;;;;;;42.10;65.30;;;;;;5081599;28;19919;-90
2022/06/13 12:53:12;;;;;;;;;;;42.30;63.70;;;;;;5056704;28;19916;-90
2022/06/13 12:55:40;;;;;;;;;;;41.00;64.40;;;;;;5078414;28;19907;-92
2022/06/13 12:58:17;;;;;;;;;;;41.00;64.80;;;;;;5084924;28;19926;-93
2022/06/13 13:00:45;;;;;;;;;;;41.80;62.60;;;;;;5079195;28;20523;-93
2022/06/13 13:03:10;;;;;;;;;;;41.80;62.90;;;;;;5074068;28;19915;-93
2022/06/13 13:05:54;;;;;;;;;;;40.80;63.60;;;;;;5081143;28;20003;-93
2022/06/13 13:08:38;;;;;;;;;;;41.30;63.30;;;;;;5085627;28;19911;-94
2022/06/13 13:11:11;;;;;;;;;;;41.20;61.20;;;;;;5084160;28;19904;-94
2022/06/13 13:13:48;;;;;;;;;;;41.40;59.30;;;;;;5090327;28;20419;-96
2022/06/13 13:16:17;;;;;;;;;;;41.30;59.50;;;;;;5083513;28;20363;-89
2022/06/13 13:18:48;;;;;;;;;;;41.50;57.40;;;;;;5086065;28;19912;-94
2022/06/13 13:21:21;;;;;;;;;;;41.20;59.30;;;;;;5086333;28;19998;-88
2022/06/13 13:23:53;;;;;;;;;;;42.20;57.40;;;;;;5073851;28;19915;-90
2022/06/13 13:26:30;;;;;;;;;;;42.40;58.10;;;;;;5085219;28;19998;-90
2022/06/13 13:29:14;;;;;;;;;;;42.90;57.80;;;;;;5082821;28;19908;-96
2022/06/13 13:31:43;;;;;;;;;;;43.20;56.00;;;;;;5074540;28;19909;-96
2022/06/13 13:34:16;;;;;;;;;;;44.20;56.60;;;;;;5083525;28;19911;-92
2022/06/13 13:36:56;;;;;;;;;;;42.70;55.00;;;;;;5088345;28;19979;-93
2022/06/13 13:39:44;;;;;;;;;;;42.50;56.10;;;;;;5083350;28;19908;-91
2022/06/13 13:42:13;;;;;;;;;;;42.10;55.70;;;;;;5076059;28;20059;-96
2022/06/13 13:44:44;;;;;;;;;;;42.20;56.80;;;;;;5103218;28;19901;-95
2022/06/13 13:47:20;;;;;;;;;;;43.50;56.60;;;;;;5100507;28;19896;-93
2022/06/13 13:49:58;;;;;;;;;;;44.00;54.80;;;;;;5114734;28;19888;-95
2022/06/13 13:52:29;;;;;;;;;;;42.30;55.10;;;;;;5108136;28;19897;-94
2022/06/13 13:54:56;;;;;;;;;;;40.50;56.40;;;;;;5100606;28;19932;-91
2022/06/13 13:57:43;;;;;;;;;;;39.60;57.80;;;;;;5114257;28;19900;-96
2022/06/13 14:00:35;;;;;;;;;;;39.80;58.70;;;;;;5082673;23;19909;-92
2022/06/13 14:03:14;;;;;;;;;;;40.30;57.80;;;;;;5054281;28;19913;-94
2022/06/13 14:05:40;;;;;;;;;;;40.80;57.30;;;;;;5027285;28;20413;-94
2022/06/13 14:08:16;;;;;;;;;;;40.60;56.90;;;;;;5035674;28;19913;-93
2022/06/13 14:10:43;;;;;;;;;;;39.30;58.10;;;;;;5036841;28;19944;-92
2022/06/13 14:13:15;;;;;;;;;;;39.00;59.90;;;;;;5037949;28;19947;-94
2022/06/13 14:15:40;;;;;;;;;;;39.60;58.60;;;;;;5037216;28;20286;-92
2022/06/13 14:18:11;;;;;;;;;;;39.50;57.40;;;;;;5035492;28;19921;-92
2022/06/13 14:20:37;;;;;;;;;;;38.70;59.70;;;;;;5036025;28;19909;-94
2022/06/13 14:23:04;;;;;;;;;;;37.70;61.10;;;;;;5036101;28;19932;-93
2022/06/13 14:25:35;;;;;;;;;;;38.00;60.00;;;;;;5034974;28;19913;-91
2022/06/13 14:28:05;;;;;;;;;;;38.50;58.80;;;;;;5033848;28;19951;-92
2022/06/13 14:36:03;;;;;;;;;;;36.20;62.00;;;;;;5045488;28;20489;-91
2022/06/13 14:38:38;;;;;;;;;;;37.00;59.60;;;;;;5052077;28;20003;-90
2022/06/13 14:41:26;;;;;;;;;;;38.00;59.10;;;;;;5052519;28;19909;-93
2022/06/13 14:44:04;;;;;;;;;;;37.80;59.00;;;;;;5041480;28;20474;-92
2022/06/13 14:46:39;;;;;;;;;;;37.50;58.20;;;;;;5053734;28;19955;-89
2022/06/13 14:49:20;;;;;;;;;;;38.00;59.20;;;;;;5055554;28;19935;-92
2022/06/13 14:51:58;;;;;;;;;;;38.20;59.10;;;;;;5054217;28;19948;-90
2022/06/13 14:54:38;;;;;;;;;;;37.60;59.20;;;;;;5052116;28;19904;-91
2022/06/13 14:57:22;;;;;;;;;;;37.80;58.80;;;;;;5050511;28;19962;-94
2022/06/13 15:00:03;;;;;;;;;;;37.00;59.00;;;;;;5052421;28;19927;-93
2022/06/13 15:02:30;;;;;;;;;;;36.70;58.90;;;;;;5032959;28;20066;-92
2022/06/13 15:05:00;;;;;;;;;;;36.80;59.70;;;;;;5051254;28;20264;-95
2022/06/13 15:07:33;;;;;;;;;;;36.50;60.40;;;;;;5052696;28;19905;-93